createdAt,value
2023-02-09T00:00:49.817Z,1.05
2023-02-09T00:05:02.252Z,0.85
2023-02-09T00:09:14.879Z,1.08
2023-02-09T00:13:28.149Z,1.23
2023-02-09T00:17:40.494Z,1.09
2023-02-09T00:21:52.961Z,0.90
2023-02-09T00:26:11.760Z,0.81
2023-02-09T00:30:27.753Z,0.75
2023-02-09T00:34:40.096Z,0.79
2023-02-09T00:38:52.574Z,0.66
2023-02-09T00:43:05.423Z,0.56
2023-02-09T00:47:17.880Z,0.43
2023-02-09T00:51:30.734Z,0.18
2023-02-09T00:55:43.057Z,-0.02
2023-02-09T00:59:55.489Z,0.26
2023-02-09T01:04:08.247Z,0.23
2023-02-09T01:08:20.717Z,0.09
2023-02-09T01:12:33.144Z,-0.19
2023-02-09T01:16:45.686Z,-0.44
2023-02-09T01:20:58.397Z,-0.52
2023-02-09T01:25:10.863Z,-0.58
2023-02-09T01:29:23.411Z,-0.68
2023-02-09T01:33:35.650Z,-0.53
2023-02-09T01:37:47.996Z,-0.39
2023-02-09T01:42:00.617Z,-0.44
2023-02-09T01:46:12.944Z,-0.50
2023-02-09T01:50:27.089Z,-0.47
2023-02-09T01:54:47.247Z,-0.33
2023-02-09T01:59:00.251Z,-0.44
2023-02-09T02:03:16.925Z,0.21
2023-02-09T02:07:41.273Z,0.80
2023-02-09T02:11:53.891Z,1.19
2023-02-09T02:16:20.009Z,1.07
2023-02-09T02:20:54.492Z,0.91
2023-02-09T02:25:28.257Z,0.73
2023-02-09T02:30:04.138Z,0.65
2023-02-09T02:34:21.928Z,0.40
2023-02-09T02:38:37.836Z,0.20
2023-02-09T02:43:00.523Z,-0.20
2023-02-09T02:47:19.619Z,0.19
2023-02-09T02:51:40.432Z,0.03
2023-02-09T02:55:55.925Z,-0.08
2023-02-09T03:00:17.071Z,-0.08
2023-02-09T03:04:31.666Z,0.62
2023-02-09T03:09:02.136Z,0.82
2023-02-09T03:13:36.814Z,0.79
2023-02-09T03:17:54.641Z,1.08
2023-02-09T03:22:19.340Z,0.99
2023-02-09T03:26:40.237Z,0.96
2023-02-09T03:30:54.172Z,1.11
2023-02-09T03:35:07.472Z,1.06
2023-02-09T03:39:20.291Z,0.63
2023-02-09T03:43:51.203Z,1.11
2023-02-09T03:48:05.461Z,1.28
2023-02-09T03:52:18.105Z,1.37
2023-02-09T03:56:30.450Z,1.43
2023-02-09T04:00:43.159Z,1.34
2023-02-09T04:04:55.835Z,1.27
2023-02-09T04:09:09.527Z,1.01
2023-02-09T04:13:21.816Z,0.99
2023-02-09T04:17:34.144Z,0.61
2023-02-09T04:21:46.467Z,1.18
2023-02-09T04:25:58.806Z,1.06
2023-02-09T04:30:11.934Z,1.17
2023-02-09T04:34:24.962Z,1.49
2023-02-09T04:38:37.840Z,1.55
2023-02-09T04:42:50.224Z,1.96
2023-02-09T04:47:02.597Z,2.02
2023-02-09T04:51:15.433Z,1.99
2023-02-09T04:55:27.865Z,1.98
2023-02-09T04:59:41.816Z,2.09
2023-02-09T05:03:54.521Z,1.99
2023-02-09T05:08:07.155Z,2.09
2023-02-09T05:12:19.444Z,2.15
2023-02-09T05:16:31.889Z,2.09
2023-02-09T05:20:45.671Z,2.13
2023-02-09T05:24:58.548Z,2.10
2023-02-09T05:29:10.976Z,2.11
2023-02-09T05:33:29.299Z,2.15
2023-02-09T05:37:41.619Z,2.05
2023-02-09T05:42:12.874Z,2.25
2023-02-09T05:46:25.255Z,2.16
2023-02-09T05:50:37.619Z,2.11
2023-02-09T05:54:52.430Z,2.27
2023-02-09T05:59:04.933Z,2.48
2023-02-09T06:03:17.367Z,2.29
2023-02-09T06:07:29.858Z,1.70
2023-02-09T06:11:42.263Z,1.93
2023-02-09T06:15:54.671Z,2.43
2023-02-09T06:20:07.630Z,2.21
2023-02-09T06:24:20.031Z,2.12
2023-02-09T06:28:32.401Z,1.88
2023-02-09T06:32:44.880Z,1.79
2023-02-09T06:36:57.331Z,1.62
2023-02-09T06:41:09.867Z,1.49
2023-02-09T06:45:22.255Z,0.84
2023-02-09T06:49:34.598Z,0.99
2023-02-09T06:53:47.469Z,1.41
2023-02-09T06:58:00.213Z,1.50
2023-02-09T07:02:12.559Z,1.54
2023-02-09T07:06:25.838Z,1.20
2023-02-09T07:10:41.156Z,1.36
2023-02-09T07:14:53.630Z,1.65
2023-02-09T07:19:06.028Z,1.49
2023-02-09T07:23:18.714Z,1.67
2023-02-09T07:27:31.185Z,1.69
2023-02-09T07:31:43.946Z,1.46
2023-02-09T07:35:56.353Z,1.53
2023-02-09T07:40:09.553Z,2.31
2023-02-09T07:44:22.254Z,2.63
2023-02-09T07:48:36.084Z,2.59
2023-02-09T07:52:48.608Z,2.49
2023-02-09T07:57:01.101Z,2.99
2023-02-09T08:01:13.835Z,3.09
2023-02-09T08:05:35.583Z,3.04
2023-02-09T08:09:48.043Z,2.90
2023-02-09T08:14:05.116Z,3.35
2023-02-09T08:18:23.281Z,3.57
2023-02-09T08:22:41.795Z,3.40
2023-02-09T08:26:55.609Z,3.46
2023-02-09T08:31:09.448Z,3.81
2023-02-09T08:35:22.008Z,3.74
2023-02-09T08:39:34.362Z,4.18
2023-02-09T08:43:51.846Z,4.34
2023-02-09T08:48:06.713Z,4.14
2023-02-09T08:52:19.537Z,4.37
2023-02-09T08:56:31.857Z,4.44
2023-02-09T09:00:44.316Z,4.70
2023-02-09T09:04:56.678Z,4.47
2023-02-09T09:09:09.125Z,4.56
2023-02-09T09:13:22.116Z,5.13
2023-02-09T09:17:35.850Z,4.89
2023-02-09T09:21:48.304Z,5.51
2023-02-09T09:26:04.685Z,5.48
2023-02-09T09:30:17.202Z,5.87
2023-02-09T09:34:30.735Z,6.07
2023-02-09T09:38:43.452Z,6.46
2023-02-09T09:43:02.135Z,6.80
2023-02-09T09:47:20.434Z,6.82
2023-02-09T09:51:39.861Z,7.32
2023-02-09T09:56:00.675Z,6.99
2023-02-09T10:00:28.720Z,7.24
2023-02-09T10:04:41.100Z,8.10
2023-02-09T10:09:06.684Z,7.55
2023-02-09T10:13:40.086Z,7.37
2023-02-09T10:17:52.755Z,8.08
2023-02-09T10:22:05.370Z,8.12
2023-02-09T10:26:23.258Z,9.05
2023-02-09T10:30:38.132Z,8.60
2023-02-09T10:34:58.280Z,8.68
2023-02-09T10:39:21.874Z,8.63
2023-02-09T10:43:35.608Z,9.47
2023-02-09T10:48:13.837Z,9.01
2023-02-09T10:52:31.119Z,9.73
2023-02-09T10:56:47.027Z,9.91
2023-02-09T11:01:17.458Z,9.95
2023-02-09T11:05:31.484Z,10.80
2023-02-09T11:09:49.685Z,9.92
2023-02-09T11:14:03.792Z,9.48
2023-02-09T11:18:25.782Z,10.15
2023-02-09T11:22:56.761Z,8.92
2023-02-09T11:27:26.455Z,9.56
2023-02-09T11:31:48.892Z,9.16
2023-02-09T11:36:30.073Z,9.28
2023-02-09T11:40:51.154Z,9.64
2023-02-09T11:45:11.482Z,9.77
2023-02-09T11:49:28.543Z,10.43
2023-02-09T11:53:50.025Z,10.53
2023-02-09T11:58:20.596Z,9.44
2023-02-09T12:02:52.312Z,10.09
2023-02-09T12:07:32.919Z,10.07
2023-02-09T12:11:54.202Z,10.81
2023-02-09T12:16:17.976Z,10.39
2023-02-09T12:20:43.920Z,10.32
2023-02-09T12:25:28.347Z,12.88
2023-02-09T12:29:41.739Z,12.35
2023-02-09T12:34:00.200Z,11.77
2023-02-09T12:38:19.532Z,12.19
2023-02-09T12:42:41.567Z,12.00
2023-02-09T12:46:59.216Z,11.36
2023-02-09T12:51:43.708Z,11.11
2023-02-09T12:56:10.772Z,10.40
2023-02-09T13:00:31.542Z,10.77
2023-02-09T13:05:12.964Z,9.93
2023-02-09T13:09:39.456Z,10.59
2023-02-09T13:14:03.583Z,10.40
2023-02-09T13:18:44.716Z,9.94
2023-02-09T13:23:10.148Z,10.47
2023-02-09T13:27:24.787Z,10.22
2023-02-09T13:31:50.424Z,10.12
2023-02-09T13:36:23.898Z,10.48
2023-02-09T13:40:37.124Z,9.93
2023-02-09T13:44:55.799Z,9.48
2023-02-09T13:49:19.000Z,9.38
2023-02-09T13:53:32.115Z,8.69
2023-02-09T13:57:47.567Z,8.94
2023-02-09T14:01:59.953Z,9.65
2023-02-09T14:06:25.194Z,9.58
2023-02-09T14:10:43.641Z,9.52
2023-02-09T14:15:16.438Z,9.65
2023-02-09T14:19:33.098Z,9.06
2023-02-09T14:23:56.028Z,8.78
2023-02-09T14:28:15.975Z,8.21
2023-02-09T14:32:36.053Z,7.94
2023-02-09T14:36:53.089Z,8.15
2023-02-09T14:41:31.897Z,7.82
2023-02-09T14:45:58.124Z,7.82
2023-02-09T14:50:19.093Z,7.61
2023-02-09T14:54:34.363Z,8.13
2023-02-09T14:58:46.715Z,7.81
2023-02-09T15:03:00.365Z,7.57
2023-02-09T15:07:18.627Z,7.59
2023-02-09T15:11:49.726Z,7.14
2023-02-09T15:16:02.249Z,6.67
2023-02-09T15:20:16.954Z,6.49
2023-02-09T15:24:29.206Z,7.07
2023-02-09T15:28:41.568Z,6.95
2023-02-09T15:32:54.012Z,6.90
2023-02-09T15:38:04.991Z,-146.12
2023-02-09T15:43:36.443Z,-146.12
2023-02-09T15:48:47.386Z,-146.12
2023-02-09T15:54:00.735Z,-146.12
2023-02-09T15:58:18.986Z,5.53
2023-02-09T16:02:32.546Z,5.61
2023-02-09T16:06:55.132Z,5.51
2023-02-09T16:11:18.480Z,5.70
2023-02-09T16:15:30.821Z,5.39
2023-02-09T16:19:45.456Z,5.54
2023-02-09T16:24:00.963Z,5.67
2023-02-09T16:28:14.541Z,5.93
2023-02-09T16:32:28.920Z,5.19
2023-02-09T16:36:42.057Z,4.92
2023-02-09T16:40:55.832Z,5.54
2023-02-09T16:45:12.951Z,6.21
2023-02-09T16:49:28.263Z,5.97
2023-02-09T16:53:51.788Z,6.00
2023-02-09T16:58:06.040Z,5.42
2023-02-09T17:02:38.708Z,5.72
2023-02-09T17:06:53.111Z,5.86
2023-02-09T17:11:05.796Z,5.85
2023-02-09T17:15:29.630Z,5.37
2023-02-09T17:19:47.919Z,5.37
2023-02-09T17:24:00.698Z,5.67
2023-02-09T17:28:13.401Z,5.92
2023-02-09T17:32:25.793Z,5.85
2023-02-09T17:36:39.999Z,6.22
2023-02-09T17:40:54.287Z,5.87
2023-02-09T17:45:22.020Z,5.54
2023-02-09T17:49:35.196Z,5.67
2023-02-09T17:53:48.997Z,5.51
2023-02-09T17:58:01.549Z,5.34
2023-02-09T18:02:20.003Z,4.94
2023-02-09T18:06:37.539Z,4.60
2023-02-09T18:10:50.057Z,4.85
2023-02-09T18:15:04.560Z,4.66
2023-02-09T18:19:17.480Z,4.49
2023-02-09T18:23:29.924Z,4.31
2023-02-09T18:27:42.414Z,4.20
2023-02-09T18:32:01.409Z,3.87
2023-02-09T18:36:15.377Z,3.82
2023-02-09T18:40:28.730Z,3.81
2023-02-09T18:44:41.457Z,3.49
2023-02-09T18:48:55.302Z,3.37
2023-02-09T18:53:08.168Z,3.84
2023-02-09T18:57:20.586Z,3.32
2023-02-09T19:01:33.000Z,3.24
2023-02-09T19:05:45.674Z,3.22
2023-02-09T19:09:58.437Z,3.11
2023-02-09T19:14:29.796Z,3.04
2023-02-09T19:18:42.122Z,2.97
2023-02-09T19:22:54.848Z,2.78
2023-02-09T19:27:09.523Z,2.81
2023-02-09T19:31:21.938Z,2.53
2023-02-09T19:35:34.467Z,2.60
2023-02-09T19:40:00.664Z,2.73
2023-02-09T19:44:13.649Z,2.86
2023-02-09T19:48:26.109Z,2.79
2023-02-09T19:52:40.956Z,2.81
2023-02-09T19:56:53.417Z,2.70
2023-02-09T20:01:09.832Z,2.79
2023-02-09T20:05:22.220Z,2.55
2023-02-09T20:09:34.998Z,2.58
2023-02-09T20:13:52.057Z,2.53
2023-02-09T20:18:04.914Z,2.60
2023-02-09T20:22:17.382Z,2.70
2023-02-09T20:26:30.471Z,2.55
2023-02-09T20:30:45.720Z,3.04
2023-02-09T20:34:58.398Z,2.86
2023-02-09T20:39:16.268Z,2.83
2023-02-09T20:43:47.377Z,2.88
2023-02-09T20:48:00.198Z,2.99
2023-02-09T20:52:13.457Z,3.01
2023-02-09T20:56:26.910Z,2.98
2023-02-09T21:00:43.241Z,2.97
2023-02-09T21:04:57.058Z,3.20
2023-02-09T21:09:14.272Z,3.21
2023-02-09T21:13:26.644Z,2.94
2023-02-09T21:17:45.623Z,3.10
2023-02-09T21:21:58.130Z,2.97
2023-02-09T21:26:13.586Z,2.88
2023-02-09T21:30:27.099Z,2.88
2023-02-09T21:34:39.582Z,2.57
2023-02-09T21:38:53.307Z,2.62
2023-02-09T21:43:05.610Z,2.74
2023-02-09T21:47:18.164Z,2.73
2023-02-09T21:51:30.542Z,2.92
2023-02-09T21:55:42.981Z,2.73
2023-02-09T21:59:55.694Z,2.45
2023-02-09T22:04:08.111Z,2.49
2023-02-09T22:08:20.479Z,2.47
2023-02-09T22:12:34.441Z,2.30
2023-02-09T22:16:47.122Z,2.13
2023-02-09T22:20:59.411Z,2.14
2023-02-09T22:25:11.900Z,2.28
2023-02-09T22:29:25.603Z,2.29
2023-02-09T22:33:38.988Z,2.41
2023-02-09T22:37:51.413Z,2.43
2023-02-09T22:42:03.910Z,2.51
2023-02-09T22:46:16.822Z,2.51
2023-02-09T22:50:29.157Z,3.12
2023-02-09T22:54:41.597Z,2.92
2023-02-09T22:58:55.848Z,2.59
2023-02-09T23:03:08.223Z,2.50
2023-02-09T23:07:20.671Z,3.12
2023-02-09T23:11:33.228Z,3.16
2023-02-09T23:15:45.785Z,2.67
2023-02-09T23:19:58.350Z,2.62
2023-02-09T23:24:12.925Z,3.02
2023-02-09T23:28:25.631Z,2.91
2023-02-09T23:32:38.072Z,2.34
2023-02-09T23:36:50.729Z,2.28
2023-02-09T23:41:11.604Z,2.85
2023-02-09T23:45:24.185Z,1.98
2023-02-09T23:49:36.631Z,1.38
2023-02-09T23:53:49.158Z,1.44
2023-02-09T23:58:01.607Z,2.08
